ROMMA est une association bénévole à but non lucratif. Votre soutien est indispensable : ADHERER à ROMMA ou FAIRE un DON

Le Versoud - (38, Isère)

Vallée du Grésivaudan (220 m)   Longitude: 05° 51' 44" E   Latitude: 45° 13' 06" N Station partenaire n°6
 

Détail journalier du     <<     >>

Température Precipitation Humidité Pression Vent Dir Rafale Dir. rafale Ensol.
Heure (°C) (mm) (%) (hPa) (km/h) (km/h) (min)
01:00 18.2081101800---0
02:00 17.3083101800---0
03:00 16.3086101800---0
04:00 15.8087101800---0
05:00 15.1088101800---0
06:00 14.4090101800---0
07:00 14.4090101800---0
08:00 18.7073101800---55
09:00 20.5066101800---60
10:00 22.3059101802NE60
11:00 24.8051101703NE60
12:00 26.6050101702NE60
13:00 27.6049101602ENE60
14:00 29.9042101505E60
15:00 31.30281014013S60
16:00 31.803110141S10SSO60
17:00 32.403110131OSO10S60
18:00 31.90351013011ONO60
19:00 31.30351013010NNO60
20:00 29.9042101306N60
21:00 26.7055101302N15
22:00 23.9058101400---0
23:00 21.8066101500---0
minuit 20.7066101500---0

Graphique du 02-06-2019

 

Serveur OMMA